• Join FlightAware (Why Join?)
  • Login
  • US Flag 
11:19AM EDT


 

Airport Tracker/Info


-or-


 

Live Flight TrackerFlight Track Log ✈ UAL4843 ✈ 13-Apr-2013 ✈ KBDL - KEWR

Flight Track Log - Related Links

Times and Time Zones

All times are in EDT time to prevent confusion due to time zone crossing. See the UAL4843 flight status page for this flight to view local times or setup timezone preferences in your user account.

Time Position Orientation Groundspeed Altitude Reporting Facility
EDT Latitude Longitude Course Direction KTS MPH feet Rate Location/Type
10:14AM 41.9436 -72.6800 75° East 137 158 700  Level Boston Center
10:15AM 41.9522 -72.6356 75° East 150 173 1,800 1,260 Climbing Boston Center
10:16AM 41.9397 -72.5936 112° Southeast 179 206 2,800 1,320 Climbing Boston Center
10:17AM 41.8856 -72.6269 205° Southwest 173 199 4,500 1,380 Climbing Boston Center
10:18AM 41.8478 -72.6603 213° Southwest 163 188 6,000 720 Climbing Boston Center
10:19AM 41.8103 -72.7019 220° Southwest 194 223 6,000  Level Boston Center
10:20AM 41.7622 -72.7433 213° Southwest 219 252 6,000  Level Boston Center
10:21AM 41.7081 -72.7961 216° Southwest 220 253 6,000  Level Boston Center
10:22AM 41.6597 -72.8458 218° Southwest 222 255 6,000  Level Boston Center
10:24AM 41.5500 -72.9500 215° Southwest 226 260 6,000  Level New York TRACON
10:25AM 41.5000 -73.0000 217° Southwest 225 259 6,000  Level New York TRACON
10:26AM 41.4667 -73.0667 236° Southwest 224 258 6,000  Level New York TRACON
10:27AM 41.4333 -73.1333 236° Southwest 221 254 6,000  Level New York TRACON
10:28AM 41.4167 -73.2167 255° West 222 255 6,000  Level New York TRACON
10:29AM 41.3833 -73.2833 236° Southwest 217 250 6,100  Climbing New York TRACON
10:30AM 41.3500 -73.3667 242° Southwest 217 250 6,000 -60 Descending New York TRACON
10:31AM 41.3333 -73.4333 252° West 215 247 6,000  Level New York TRACON
10:32AM 41.3000 -73.5000 236° Southwest 214 246 6,000  Level New York TRACON
10:33AM 41.2833 -73.5667 252° West 213 245 6,000  Level New York TRACON
10:34AM 41.2667 -73.6500 255° West 206 237 6,000 -60 Level New York TRACON
10:35AM 41.2667 -73.7167 270° West 210 242 5,900 -540 Descending New York TRACON
10:36AM 41.2667 -73.8000 270° West 231 266 5,000 -480 Descending New York TRACON
10:37AM 41.2500 -73.8833 255° West 213 245 5,000  Level New York TRACON
10:38AM 41.2500 -73.9667 270° West 212 244 5,000  Level New York TRACON
10:39AM 41.2333 -74.0333 252° West 212 244 5,000  Level New York TRACON
10:40AM 41.2167 -74.1167 255° West 221 254 5,000  Level New York TRACON
10:41AM 41.1833 -74.1833 236° Southwest 228 262 5,000  Level New York TRACON
10:42AM 41.1333 -74.2500 225° Southwest 234 269 5,000  Level New York TRACON
10:43AM 41.1000 -74.3167 236° Southwest 232 267 5,000  Level New York TRACON
10:44AM 41.0500 -74.3833 225° Southwest 231 266 5,000  Level New York TRACON
10:45AM 41.0000 -74.4167 207° Southwest 233 268 5,000  Level New York TRACON
10:46AM 40.9500 -74.4667 217° Southwest 231 266 5,000  Level New York TRACON
10:47AM 40.9000 -74.5167 217° Southwest 236 272 5,000  Level New York TRACON
10:48AM 40.8333 -74.5333 191° South 240 276 5,000  Level New York TRACON
10:49AM 40.7667 -74.5333 180° South 242 278 5,000  Level New York TRACON
10:50AM 40.7000 -74.5333 180° South 250 288 5,000  Level New York TRACON
10:51AM 40.6333 -74.4667 143° Southeast 246 283 5,000 -360 Level New York TRACON
10:52AM 40.6000 -74.4000 123° Southeast 254 292 4,300 -900 Descending New York TRACON
10:53AM 40.5667 -74.3333 123° Southeast 262 302 3,200 -1,200 Descending New York TRACON
10:54AM 40.5833 -74.2500 75° East 224 258 2,000 -1,020 Descending New York TRACON
10:55AM 40.6167 -74.2167 37° Northeast 188 216 1,200 -840 Descending New York TRACON
10:56AM 40.6667 -74.1833 27° Northeast 141 162 400 -840 Descending New York TRACON
10:58AM 40.6833 -74.1667 93° East  Level FlightAware Approximate
11:05AM 40.6925 -74.1687 93° East  Level Estimated